Time;durP1;ratioP1;P1;durP2;ratioP2;P2;SDS_P1;SDS_P2;PMS_P1;PMS_P2;Temp;Humidity;BMP_temperature;BMP_pressure;BME280_temperature;BME280_humidity;BME280_pressure;Samples;Min_cycle;Max_cycle;Signal;HPM_P1;HPM_P2
2021/08/08 00:02:09;;;;;;;0.63;0.63;;;;;;;16.73;94.46;99392.75;5071091;28;20633;-71
2021/08/08 00:04:35;;;;;;;0.40;0.40;;;;;;;16.74;93.52;99390.78;5071591;28;20182;-71
2021/08/08 00:07:00;;;;;;;0.33;0.20;;;;;;;16.73;92.40;99392.75;5071124;28;20559;-71
2021/08/08 00:09:25;;;;;;;0.30;0.30;;;;;;;16.73;91.54;99387.25;5071080;28;20243;-71
2021/08/08 00:11:51;;;;;;;1.47;0.53;;;;;;;16.73;90.07;99389.22;5070913;28;20396;-71
2021/08/08 00:14:16;;;;;;;0.50;0.40;;;;;;;16.75;90.00;99397.91;5070981;28;20629;-71
2021/08/08 00:16:41;;;;;;;1.80;0.40;;;;;;;16.73;90.36;99401.03;5070985;28;20183;-71
2021/08/08 00:19:07;;;;;;;0.40;0.40;;;;;;;16.70;89.67;99392.72;5070928;28;20253;-71
2021/08/08 00:21:32;;;;;;;0.43;0.43;;;;;;;16.69;88.98;99402.97;5070030;28;20175;-71
2021/08/08 00:23:58;;;;;;;0.73;0.50;;;;;;;16.69;88.35;99400.22;5070886;28;20174;-71
2021/08/08 00:26:23;;;;;;;0.33;0.33;;;;;;;16.61;88.12;99398.50;5070469;28;20205;-71
2021/08/08 00:28:49;;;;;;;0.93;0.40;;;;;;;16.58;88.07;99394.53;5070796;28;20181;-71
2021/08/08 00:31:22;;;;;;;0.37;0.37;;;;;;;16.55;87.67;99400.81;5070628;28;20182;-71
2021/08/08 00:33:49;;;;;;;0.30;0.30;;;;;;;16.55;86.78;99400.81;5070807;28;20584;-71
2021/08/08 00:36:14;;;;;;;2.73;0.43;;;;;;;16.46;87.65;99402.28;5071124;28;20367;-71
2021/08/08 00:38:39;;;;;;;0.50;0.33;;;;;;;16.42;86.80;99410.50;5070592;28;20257;-70
2021/08/08 00:41:05;;;;;;;0.37;0.37;;;;;;;16.42;86.33;99406.97;5070606;28;20654;-71
2021/08/08 00:43:30;;;;;;;0.30;0.30;;;;;;;16.36;85.25;99407.31;5070543;28;20223;-71
2021/08/08 00:45:55;;;;;;;0.10;0.10;;;;;;;16.31;85.20;99404.06;5070528;28;20198;-71
2021/08/08 00:48:21;;;;;;;0.10;0.10;;;;;;;16.25;85.21;99400.88;5070566;28;20614;-71
2021/08/08 00:50:46;;;;;;;0.40;0.40;;;;;;;16.19;84.92;99398.78;5070581;28;20674;-71
2021/08/08 00:53:12;;;;;;;0.30;0.30;;;;;;;16.16;84.52;99396.78;5070401;28;20175;-71
2021/08/08 00:55:37;;;;;;;0.17;0.17;;;;;;;16.10;84.48;99395.53;5070644;28;20174;-71
2021/08/08 00:58:02;;;;;;;0.10;0.10;;;;;;;16.03;84.95;99394.28;5070502;28;20530;-71
2021/08/08 01:00:28;;;;;;;0.27;0.27;;;;;;;15.96;85.11;99398.91;5070422;28;20170;-71
2021/08/08 01:02:57;;;;;;;0.20;0.20;;;;;;;15.89;85.31;99390.53;5070124;28;20529;-71
2021/08/08 01:05:28;;;;;;;0.10;0.10;;;;;;;15.81;86.11;99386.91;5070440;28;20191;-71
2021/08/08 01:08:01;;;;;;;0.40;0.30;;;;;;;15.84;85.17;99518.38;5070280;28;20210;-71
2021/08/08 01:10:26;;;;;;;0.13;0.10;;;;;;;15.80;85.67;99437.66;5070336;28;20842;-71
2021/08/08 01:12:55;;;;;;;0.20;0.20;;;;;;;15.77;85.96;99439.19;5070195;28;20174;-71
2021/08/08 01:15:21;;;;;;;0.20;0.20;;;;;;;15.71;86.17;99418.63;5070277;28;20317;-71
2021/08/08 01:17:46;;;;;;;0.03;0.03;;;;;;;15.69;86.70;99415.44;5070285;28;20265;-71
2021/08/08 01:20:13;;;;;;;0.30;0.30;;;;;;;15.68;86.49;99415.81;5070614;28;20259;-71
2021/08/08 01:22:44;;;;;;;0.37;0.20;;;;;;;15.66;87.39;99416.19;5070016;28;20186;-71
2021/08/08 01:25:10;;;;;;;0.20;0.20;;;;;;;15.62;87.66;99411.78;5070197;28;20185;-71
2021/08/08 01:27:37;;;;;;;0.50;0.20;;;;;;;15.60;87.68;99416.88;5070511;28;20206;-73
2021/08/08 01:30:03;;;;;;;0.20;0.20;;;;;;;15.58;87.58;99414.44;5069919;28;20175;-71
2021/08/08 01:32:33;;;;;;;0.10;0.10;;;;;;;15.56;87.77;99425.03;5072259;28;20171;-71
2021/08/08 01:34:58;;;;;;;0.10;0.10;;;;;;;15.56;88.32;99413.25;5073800;28;20178;-71
2021/08/08 01:37:24;;;;;;;0.67;0.20;;;;;;;15.51;88.50;99408.06;5073708;28;20650;-71
2021/08/08 01:40:08;;;;;;;0.00;0.00;;;;;;;15.45;89.51;99411.09;5073750;28;20171;-70
2021/08/08 01:42:35;;;;;;;0.10;0.10;;;;;;;15.42;89.02;99414.59;5073468;28;20232;-70
2021/08/08 01:45:02;;;;;;;0.20;0.20;;;;;;;15.41;89.64;99412.22;5073665;28;20777;-71
2021/08/08 01:47:34;;;;;;;1.13;0.20;;;;;;;15.37;90.21;99417.69;5073509;28;20681;-71
2021/08/08 01:50:01;;;;;;;0.30;0.30;;;;;;;15.32;91.27;99412.47;5073605;28;20266;-71
2021/08/08 01:52:27;;;;;;;0.10;0.10;;;;;;;15.29;91.21;99417.91;5073402;28;20198;-71
2021/08/08 01:54:54;;;;;;;0.47;0.47;;;;;;;15.27;91.36;99421.03;5073487;28;20252;-70
2021/08/08 01:57:19;;;;;;;0.40;0.30;;;;;;;15.21;91.73;99424.47;5073389;28;20175;-71
2021/08/08 01:59:45;;;;;;;0.77;0.47;;;;;;;15.21;91.81;99418.97;5073490;28;20174;-71
2021/08/08 02:02:12;;;;;;;0.10;0.10;;;;;;;15.16;92.02;99415.34;5073242;28;20177;-71
2021/08/08 02:04:39;;;;;;;0.10;0.10;;;;;;;15.17;92.24;99424.41;5073068;28;20193;-70
2021/08/08 02:07:07;;;;;;;0.30;0.20;;;;;;;15.13;92.78;99418.84;5071872;28;20225;-71
2021/08/08 02:09:33;;;;;;;0.50;0.20;;;;;;;15.15;92.32;99432.22;5072999;28;20175;-71
2021/08/08 02:11:58;;;;;;;0.40;0.20;;;;;;;15.17;92.39;99440.91;5073184;28;20181;-71
2021/08/08 02:14:23;;;;;;;0.30;0.27;;;;;;;15.18;92.16;99448.00;5073154;28;20848;-71
2021/08/08 02:16:49;;;;;;;0.17;0.17;;;;;;;15.18;91.88;99443.28;5073146;28;20687;-71
2021/08/08 02:19:14;;;;;;;0.77;0.30;;;;;;;15.18;93.06;99450.75;5072995;28;20209;-71
2021/08/08 02:21:40;;;;;;;0.50;0.23;;;;;;;15.19;92.29;99444.13;5072885;28;20182;-71
2021/08/08 02:24:06;;;;;;;0.23;0.23;;;;;;;15.18;92.76;99439.75;5072963;28;20163;-71
2021/08/08 02:26:31;;;;;;;0.50;0.23;;;;;;;15.16;92.42;99439.31;5072785;28;20735;-71
2021/08/08 02:28:56;;;;;;;0.80;0.20;;;;;;;15.15;92.95;99444.03;5072816;28;20274;-71
2021/08/08 02:31:22;;;;;;;0.07;0.07;;;;;;;15.14;92.81;99438.88;5072660;28;20206;-71
2021/08/08 02:33:47;;;;;;;0.20;0.20;;;;;;;15.14;92.74;99438.88;5072776;28;20171;-71
2021/08/08 02:36:12;;;;;;;1.27;0.33;;;;;;;15.12;93.73;99438.47;5072817;28;20174;-70
2021/08/08 02:38:38;;;;;;;0.90;0.50;;;;;;;15.10;93.74;99440.78;5072630;28;20163;-71
2021/08/08 02:41:04;;;;;;;0.50;0.50;;;;;;;15.08;93.75;99446.66;5072795;28;20166;-71
2021/08/08 02:43:29;;;;;;;0.30;0.13;;;;;;;15.10;93.97;99438.84;5071481;28;20179;-71
2021/08/08 02:45:55;;;;;;;0.23;0.23;;;;;;;15.07;94.04;99441.53;5072454;28;20638;-71
2021/08/08 02:48:20;;;;;;;0.20;0.20;;;;;;;15.11;94.10;99445.13;5072603;28;20258;-71
2021/08/08 02:50:46;;;;;;;0.20;0.20;;;;;;;15.16;93.58;99453.88;5072364;28;20174;-71
2021/08/08 02:53:11;;;;;;;0.97;0.60;;;;;;;15.21;93.45;99452.78;5072365;28;20167;-71
2021/08/08 02:55:36;;;;;;;1.03;0.47;;;;;;;15.15;94.17;99471.53;5072294;28;20179;-71
2021/08/08 02:58:02;;;;;;;0.50;0.40;;;;;;;15.21;94.24;99476.75;5072378;28;20205;-71
2021/08/08 03:00:27;;;;;;;0.27;0.20;;;;;;;15.14;94.47;99477.41;5072260;28;20476;-71
2021/08/08 03:02:52;;;;;;;0.20;0.20;;;;;;;15.21;94.26;99488.56;5071959;28;20285;-71
2021/08/08 03:05:18;;;;;;;4.47;0.87;;;;;;;15.15;94.87;99484.50;5072078;28;20688;-71
2021/08/08 03:07:43;;;;;;;0.87;0.30;;;;;;;15.14;94.44;99494.72;5072065;28;20552;-71
2021/08/08 03:10:10;;;;;;;0.30;0.30;;;;;;;15.04;95.76;99491.75;5071965;28;20174;-71
2021/08/08 03:12:35;;;;;;;0.80;0.40;;;;;;;15.11;95.42;99500.16;5071930;28;20174;-71
2021/08/08 03:15:01;;;;;;;0.30;0.30;;;;;;;15.06;95.08;99503.22;5071834;28;20178;-70
2021/08/08 03:17:26;;;;;;;0.50;0.47;;;;;;;15.03;95.81;99510.22;5071896;28;20595;-71
2021/08/08 03:19:52;;;;;;;0.37;0.37;;;;;;;15.20;94.98;99522.75;5071855;28;20654;-71
2021/08/08 03:22:17;;;;;;;0.40;0.40;;;;;;;15.15;95.78;99523.03;5071424;28;20179;-71
2021/08/08 03:24:43;;;;;;;0.50;0.40;;;;;;;15.15;95.88;99520.28;5071922;28;20166;-71
2021/08/08 03:27:09;;;;;;;0.37;0.30;;;;;;;15.24;95.41;99523.59;5071658;28;20209;-70
2021/08/08 03:29:34;;;;;;;0.43;0.40;;;;;;;15.34;94.46;99530.47;5071586;28;20270;-71
2021/08/08 03:32:00;;;;;;;0.83;0.20;;;;;;;15.38;94.38;99531.31;5071201;28;20196;-71
2021/08/08 03:34:26;;;;;;;0.40;0.30;;;;;;;15.39;94.10;99544.72;5071304;28;20583;-71
2021/08/08 03:36:51;;;;;;;0.67;0.50;;;;;;;15.30;94.79;99537.84;5071785;28;20186;-71
2021/08/08 03:39:20;;;;;;;0.30;0.30;;;;;;;15.38;94.05;99548.63;5071644;28;20210;-71
2021/08/08 03:41:45;;;;;;;0.50;0.20;;;;;;;15.38;94.74;99553.34;5070174;28;20612;-71
2021/08/08 03:44:11;;;;;;;0.30;0.30;;;;;;;15.35;94.70;99552.13;5071459;28;20256;-71
2021/08/08 03:46:36;;;;;;;0.40;0.20;;;;;;;15.32;94.75;99555.56;5071144;28;20695;-71
2021/08/08 03:49:01;;;;;;;1.00;0.30;;;;;;;15.34;95.34;99563.50;5069874;28;20308;-71
2021/08/08 03:51:27;;;;;;;0.20;0.20;;;;;;;15.39;94.85;99554.94;5071038;28;20253;-71
2021/08/08 03:53:52;;;;;;;0.83;0.43;;;;;;;15.36;95.40;99561.97;5071287;28;20192;-71
2021/08/08 03:56:17;;;;;;;0.67;0.20;;;;;;;15.36;95.66;99569.44;5071154;28;20513;-71
2021/08/08 03:58:43;;;;;;;0.20;0.20;;;;;;;15.46;94.65;99569.59;5071041;28;20264;-71
2021/08/08 04:01:08;;;;;;;0.23;0.23;;;;;;;15.49;94.87;99565.34;5069642;28;20167;-71
2021/08/08 04:03:35;;;;;;;0.63;0.33;;;;;;;15.47;94.63;99564.91;5070818;28;20189;-71
2021/08/08 04:06:01;;;;;;;0.80;0.40;;;;;;;15.41;95.34;99561.66;5070849;28;20197;-71
2021/08/08 04:08:26;;;;;;;0.40;0.40;;;;;;;15.42;95.22;99566.00;5070751;28;20253;-71
2021/08/08 04:10:52;;;;;;;1.23;0.33;;;;;;;15.42;95.49;99568.75;5070836;28;20266;-71
2021/08/08 04:13:17;;;;;;;0.40;0.40;;;;;;;15.43;95.04;99588.81;5070461;28;20162;-71
2021/08/08 04:15:42;;;;;;;0.47;0.40;;;;;;;15.41;96.29;99580.94;5070737;28;20216;-71
2021/08/08 04:18:08;;;;;;;0.43;0.43;;;;;;;15.39;95.73;99585.22;5070524;28;20228;-71
2021/08/08 04:20:33;;;;;;;1.43;0.37;;;;;;;15.40;96.09;99595.06;5070662;28;20179;-71
2021/08/08 04:22:58;;;;;;;0.33;0.33;;;;;;;15.43;95.88;99588.81;5070306;28;20182;-71
2021/08/08 04:25:24;;;;;;;2.10;0.27;;;;;;;15.44;96.42;99585.69;5070602;28;20201;-71
2021/08/08 04:27:49;;;;;;;0.63;0.40;;;;;;;15.48;95.29;99583.03;5070511;28;20198;-71
2021/08/08 04:30:14;;;;;;;0.50;0.20;;;;;;;15.47;95.58;99581.41;5070358;28;20284;-70
2021/08/08 04:32:40;;;;;;;2.00;0.70;;;;;;;15.52;95.80;99583.09;5070299;28;20630;-71
2021/08/08 04:35:05;;;;;;;0.33;0.33;;;;;;;15.52;95.83;99603.16;5070967;28;20170;-71
2021/08/08 04:37:31;;;;;;;0.57;0.40;;;;;;;15.48;95.98;99603.09;5070462;28;20638;-71
2021/08/08 04:39:57;;;;;;;0.30;0.30;;;;;;;15.55;95.43;99591.41;5070502;28;20171;-71
2021/08/08 04:42:22;;;;;;;0.30;0.30;;;;;;;15.57;96.51;99593.78;5070644;28;20173;-71
2021/08/08 04:44:48;;;;;;;0.50;0.40;;;;;;;15.59;95.30;99602.47;5070380;28;20599;-71
2021/08/08 04:47:13;;;;;;;0.73;0.20;;;;;;;15.62;95.70;99590.75;5070340;28;20233;-71
2021/08/08 04:49:38;;;;;;;0.90;0.40;;;;;;;15.63;95.77;99600.63;5070291;28;20177;-71
2021/08/08 04:52:04;;;;;;;1.00;0.33;;;;;;;15.65;95.66;99596.34;5070292;28;20166;-71
2021/08/08 04:54:29;;;;;;;0.30;0.30;;;;;;;15.70;95.44;99598.78;5070545;28;20586;-71
2021/08/08 04:56:55;;;;;;;0.70;0.40;;;;;;;15.69;96.38;99610.19;5070439;28;20265;-71
2021/08/08 04:59:20;;;;;;;0.23;0.23;;;;;;;15.72;94.74;99604.72;5070185;28;20703;-71
2021/08/08 05:01:46;;;;;;;0.40;0.40;;;;;;;15.76;94.64;99604.78;5070072;28;20170;-71
2021/08/08 05:04:11;;;;;;;4.37;0.60;;;;;;;15.76;95.25;99602.03;5070161;28;20281;-71
2021/08/08 05:06:36;;;;;;;0.27;0.27;;;;;;;15.82;94.73;99602.53;5071242;28;20229;-71
2021/08/08 05:09:02;;;;;;;0.57;0.57;;;;;;;15.84;95.29;99606.50;5074243;28;20170;-71
2021/08/08 05:11:28;;;;;;;0.60;0.60;;;;;;;15.90;94.07;99607.78;5073912;28;20170;-71
2021/08/08 05:13:53;;;;;;;1.33;0.63;;;;;;;15.93;94.58;99595.25;5074115;28;20531;-71
2021/08/08 05:16:18;;;;;;;2.43;0.40;;;;;;;15.95;94.76;99610.25;5072902;28;20495;-71
2021/08/08 05:18:44;;;;;;;0.60;0.60;;;;;;;15.97;94.40;99607.13;5074087;28;20664;-71
2021/08/08 05:21:09;;;;;;;0.40;0.33;;;;;;;15.94;94.09;99605.91;5073962;28;20634;-71
2021/08/08 05:23:35;;;;;;;0.73;0.47;;;;;;;15.92;94.37;99599.19;5070019;28;20182;-70
2021/08/08 05:26:02;;;;;;;3.13;0.50;;;;;;;15.99;95.21;99632.34;5073474;28;20601;-71
2021/08/08 05:28:28;;;;;;;1.23;0.60;;;;;;;15.99;95.41;99610.31;5073860;28;20173;-71
2021/08/08 05:30:53;;;;;;;0.40;0.40;;;;;;;16.09;93.41;99614.41;5073356;28;20253;-71
2021/08/08 05:33:18;;;;;;;0.40;0.40;;;;;;;16.11;93.14;99623.91;5073455;28;20259;-71
2021/08/08 05:35:44;;;;;;;0.67;0.67;;;;;;;16.15;92.73;99615.69;5073792;28;20174;-70
2021/08/08 05:38:10;;;;;;;0.43;0.43;;;;;;;16.20;92.84;99620.88;5073468;28;20634;-71
2021/08/08 05:40:35;;;;;;;0.57;0.57;;;;;;;16.20;92.15;99621.69;5073540;28;20645;-71
2021/08/08 05:43:00;;;;;;;1.30;0.80;;;;;;;16.22;91.61;99630.38;5073535;28;20174;-71
2021/08/08 05:45:26;;;;;;;0.70;0.70;;;;;;;16.30;91.72;99632.06;5073641;28;20182;-71
2021/08/08 05:47:51;;;;;;;1.50;0.70;;;;;;;16.31;90.39;99633.66;5073352;28;20202;-71
2021/08/08 05:50:17;;;;;;;0.80;0.80;;;;;;;16.36;91.81;99636.13;5073419;28;20227;-71
2021/08/08 05:52:50;;;;;;;0.40;0.40;;;;;;;16.40;90.93;99640.88;5073234;28;20288;-71
2021/08/08 05:55:17;;;;;;;0.40;0.40;;;;;;;16.40;90.12;99636.19;5073357;28;20638;-71
2021/08/08 05:57:42;;;;;;;0.60;0.60;;;;;;;16.41;91.21;99639.72;5073432;28;20175;-71
2021/08/08 06:00:08;;;;;;;1.57;0.77;;;;;;;16.42;90.54;99642.09;5073121;28;20491;-71
2021/08/08 06:02:33;;;;;;;0.80;0.60;;;;;;;16.37;90.22;99631.41;5072753;28;20591;-71
2021/08/08 06:04:59;;;;;;;0.20;0.20;;;;;;;16.35;89.42;99640.06;5073037;28;20240;-70
2021/08/08 06:07:24;;;;;;;0.30;0.30;;;;;;;16.35;89.57;99633.75;5074616;28;20645;-71
2021/08/08 06:09:49;;;;;;;0.80;0.80;;;;;;;16.37;89.76;99653.47;5084680;28;20228;-71
2021/08/08 06:12:15;;;;;;;0.53;0.53;;;;;;;16.40;89.81;99646.41;5074633;28;20231;-71
2021/08/08 06:14:40;;;;;;;2.03;0.90;;;;;;;16.41;89.62;99654.31;5073861;28;20178;-71
2021/08/08 06:17:05;;;;;;;1.40;1.13;;;;;;;16.42;88.61;99650.38;5073400;28;20198;-71
2021/08/08 06:19:30;;;;;;;1.23;0.67;;;;;;;16.42;88.08;99661.41;5072215;28;20228;-70
2021/08/08 06:21:56;;;;;;;0.80;0.70;;;;;;;16.45;88.78;99666.19;5073348;28;20217;-70
2021/08/08 06:24:21;;;;;;;0.87;0.87;;;;;;;16.48;88.81;99661.88;5073001;28;20183;-71
2021/08/08 06:26:46;;;;;;;0.57;0.57;;;;;;;16.47;88.55;99661.09;5072923;28;20615;-71
2021/08/08 06:29:12;;;;;;;0.67;0.63;;;;;;;16.49;87.99;99668.97;5073038;28;20416;-71
2021/08/08 06:31:37;;;;;;;0.53;0.53;;;;;;;16.51;87.26;99661.97;5072646;28;20536;-72
2021/08/08 06:34:02;;;;;;;0.70;0.70;;;;;;;16.58;86.70;99664.00;5073001;28;20170;-71
2021/08/08 06:36:28;;;;;;;2.30;0.90;;;;;;;16.63;85.98;99667.25;5073107;28;20171;-71
2021/08/08 06:38:55;;;;;;;0.47;0.47;;;;;;;16.70;86.25;99674.09;5072774;28;20171;-71
2021/08/08 06:41:21;;;;;;;0.70;0.57;;;;;;;16.77;85.61;99674.16;5072656;28;20638;-72
2021/08/08 06:43:47;;;;;;;1.33;0.90;;;;;;;16.82;83.13;99669.16;5072910;28;20163;-71
2021/08/08 06:46:12;;;;;;;0.40;0.40;;;;;;;16.89;83.83;99676.72;5072638;28;20197;-71
2021/08/08 06:48:37;;;;;;;0.77;0.73;;;;;;;16.95;82.23;99681.56;5072766;28;20176;-71
2021/08/08 06:51:03;;;;;;;1.07;0.90;;;;;;;17.02;82.57;99694.66;5072563;28;20245;-71
2021/08/08 06:53:28;;;;;;;0.20;0.20;;;;;;;17.01;80.28;99682.03;5072604;28;20258;-71
2021/08/08 06:55:53;;;;;;;0.63;0.60;;;;;;;17.04;81.11;99677.72;5072509;28;20182;-71
2021/08/08 06:58:19;;;;;;;1.73;0.90;;;;;;;17.14;80.75;99685.34;5072339;28;20166;-72
2021/08/08 07:00:44;;;;;;;0.77;0.60;;;;;;;17.24;80.06;99690.22;5072472;28;20187;-71
2021/08/08 07:03:10;;;;;;;0.90;0.73;;;;;;;17.32;78.98;99691.09;5070774;28;20197;-72
2021/08/08 07:05:35;;;;;;;0.63;0.57;;;;;;;17.32;79.09;99691.88;5072343;28;20183;-71
2021/08/08 07:08:00;;;;;;;0.20;0.20;;;;;;;17.32;78.48;99715.94;5071408;28;20209;-72
2021/08/08 07:10:26;;;;;;;0.90;0.90;;;;;;;17.35;78.18;99729.00;5071605;28;20209;-72
2021/08/08 07:12:51;;;;;;;0.43;0.43;;;;;;;17.33;77.49;99726.63;5071972;28;20178;-71
2021/08/08 07:15:16;;;;;;;0.60;0.60;;;;;;;17.29;77.99;99719.47;5072110;28;20182;-72
2021/08/08 07:17:41;;;;;;;2.20;1.33;;;;;;;17.27;80.59;99710.75;5071917;28;20542;-72
2021/08/08 07:20:08;;;;;;;0.70;0.70;;;;;;;17.29;78.00;99720.25;5071788;28;20175;-72
2021/08/08 07:22:33;;;;;;;0.73;0.73;;;;;;;17.37;77.91;99721.16;5071556;28;20183;-72
2021/08/08 07:24:59;;;;;;;1.17;0.77;;;;;;;17.45;78.66;99728.34;5071893;28;20642;-72
2021/08/08 07:27:24;;;;;;;1.07;0.80;;;;;;;17.51;77.16;99719.38;5071590;28;20336;-72
2021/08/08 07:29:49;;;;;;;0.77;0.70;;;;;;;17.64;77.56;99725.44;5071265;28;20634;-72
2021/08/08 07:32:15;;;;;;;1.23;0.90;;;;;;;17.67;76.61;99724.69;5071141;28;20179;-72
2021/08/08 07:34:40;;;;;;;1.87;1.03;;;;;;;17.77;75.94;99715.75;5070312;28;20208;-72
2021/08/08 07:37:06;;;;;;;1.47;0.67;;;;;;;17.81;74.53;99730.41;5071572;28;20179;-72
2021/08/08 07:39:32;;;;;;;0.87;0.77;;;;;;;17.81;74.43;99726.88;5071559;28;20174;-72
2021/08/08 07:41:57;;;;;;;1.40;1.03;;;;;;;17.79;74.24;99738.28;5071321;28;20179;-72
2021/08/08 07:44:23;;;;;;;3.57;1.10;;;;;;;17.96;74.01;99736.09;5071436;28;20239;-72
2021/08/08 07:46:48;;;;;;;1.13;0.57;;;;;;;18.02;73.19;99756.69;5070053;28;20210;-72
2021/08/08 07:49:14;;;;;;;0.90;0.90;;;;;;;17.97;72.13;99754.28;5071289;28;20221;-71
2021/08/08 07:51:39;;;;;;;0.70;0.70;;;;;;;18.10;73.89;99753.63;5071059;28;20171;-72
2021/08/08 07:54:05;;;;;;;1.53;0.97;;;;;;;18.23;71.83;99745.88;5071365;28;20699;-72
2021/08/08 07:56:31;;;;;;;2.80;0.63;;;;;;;18.23;70.99;99751.41;5071288;28;20170;-72
2021/08/08 07:58:56;;;;;;;2.83;0.40;;;;;;;18.22;70.18;99760.84;5071104;28;20196;-73
2021/08/08 08:01:22;;;;;;;0.53;0.53;;;;;;;18.20;71.27;99765.16;5070523;28;20662;-74
2021/08/08 08:03:47;;;;;;;0.87;0.70;;;;;;;18.23;69.87;99753.38;5070561;28;20669;-72
2021/08/08 08:06:13;;;;;;;1.17;0.70;;;;;;;18.20;70.00;99765.16;5070668;28;20244;-73
2021/08/08 08:08:44;;;;;;;1.63;0.80;;;;;;;18.26;71.39;99764.47;5068680;28;20186;-73
2021/08/08 08:11:10;;;;;;;0.57;0.57;;;;;;;18.38;69.69;99764.19;5068178;28;20197;-72
2021/08/08 08:13:35;;;;;;;0.43;0.43;;;;;;;18.34;68.78;99768.88;5069824;28;20538;-71
2021/08/08 08:16:00;;;;;;;0.20;0.20;;;;;;;18.37;69.47;99772.84;5069676;28;20178;-71
2021/08/08 08:18:26;;;;;;;0.50;0.50;;;;;;;18.43;67.27;99774.09;5069590;28;20179;-71
2021/08/08 08:20:51;;;;;;;0.70;0.50;;;;;;;18.27;67.23;99771.59;5070378;28;20183;-72
2021/08/08 08:23:17;;;;;;;1.30;0.67;;;;;;;18.26;68.17;99774.72;5069637;28;20591;-72
2021/08/08 08:25:43;;;;;;;0.20;0.20;;;;;;;18.21;67.85;99759.25;5069753;28;20175;-72
2021/08/08 08:28:12;;;;;;;0.87;0.40;;;;;;;18.32;67.71;99771.22;5069480;28;20206;-71
2021/08/08 08:30:37;;;;;;;1.17;0.87;;;;;;;18.37;66.80;99773.66;5066547;28;20163;-72
2021/08/08 08:33:04;;;;;;;0.10;0.10;;;;;;;18.51;67.52;99777.72;5069518;28;20581;-71
2021/08/08 08:35:30;;;;;;;0.43;0.43;;;;;;;18.48;65.30;99772.94;5069496;28;20174;-71
2021/08/08 08:37:55;;;;;;;2.83;0.87;;;;;;;18.56;65.38;99780.16;5069332;28;20243;-72
2021/08/08 08:40:21;;;;;;;0.20;0.20;;;;;;;18.66;63.64;99785.00;5070131;28;20650;-72
2021/08/08 08:42:49;;;;;;;0.77;0.73;;;;;;;18.57;64.56;99760.41;5069860;28;20174;-72
2021/08/08 08:45:15;;;;;;;0.77;0.37;;;;;;;18.82;66.83;99782.00;5069237;28;20531;-71
2021/08/08 08:47:41;;;;;;;0.40;0.17;;;;;;;18.83;62.21;99806.53;5070584;28;20285;-71
2021/08/08 08:50:08;;;;;;;0.67;0.50;;;;;;;18.83;62.73;99776.06;5070625;28;20171;-71
2021/08/08 08:52:34;;;;;;;0.20;0.20;;;;;;;18.86;62.82;99780.03;5068850;28;20182;-71
2021/08/08 08:55:00;;;;;;;0.23;0.23;;;;;;;18.81;62.55;99775.66;5070278;28;20175;-71
2021/08/08 08:57:25;;;;;;;0.43;0.43;;;;;;;18.81;62.70;99759.06;5070366;28;20626;-70
2021/08/08 08:59:52;;;;;;;0.17;0.17;;;;;;;18.95;62.18;99758.34;5067151;28;20202;-71
2021/08/08 09:02:17;;;;;;;3.53;0.57;;;;;;;19.17;62.28;99770.38;5057236;28;20182;-71
2021/08/08 09:04:43;;;;;;;1.73;1.07;;;;;;;19.32;60.59;99774.81;5070409;28;20183;-71
2021/08/08 09:07:08;;;;;;;1.70;0.70;;;;;;;19.20;61.73;99780.69;5070331;28;20263;-71
2021/08/08 09:09:37;;;;;;;0.80;0.60;;;;;;;18.98;62.84;99772.25;5070330;28;20175;-71
2021/08/08 09:12:03;;;;;;;0.50;0.23;;;;;;;18.76;62.52;99783.50;5070178;28;20579;-71
2021/08/08 09:14:32;;;;;;;0.40;0.40;;;;;;;18.50;63.90;99782.47;5070379;28;20174;-71
2021/08/08 09:16:57;;;;;;;0.70;0.40;;;;;;;18.36;63.71;99783.13;5070301;28;20167;-71
2021/08/08 09:19:31;;;;;;;0.77;0.50;;;;;;;18.29;65.12;99787.78;5067445;28;20243;-71
2021/08/08 09:21:57;;;;;;;1.17;0.73;;;;;;;18.24;65.01;99788.94;5070043;28;20171;-71
2021/08/08 09:24:34;;;;;;;1.63;0.80;;;;;;;18.22;67.06;99791.25;5070094;28;20183;-71
2021/08/08 09:27:10;;;;;;;0.53;0.53;;;;;;;18.21;67.05;99791.66;5070213;28;20251;-71
2021/08/08 09:29:39;;;;;;;1.10;0.60;;;;;;;18.15;67.17;99799.50;5070226;28;20186;-71
2021/08/08 09:32:05;;;;;;;0.40;0.40;;;;;;;18.06;67.37;99793.47;5070349;28;20497;-71
2021/08/08 09:34:39;;;;;;;1.00;0.97;;;;;;;18.06;67.79;99799.78;5070086;28;20175;-71
2021/08/08 09:37:23;;;;;;;0.60;0.60;;;;;;;18.09;67.97;99787.19;5070118;28;20193;-71
2021/08/08 09:39:50;;;;;;;0.20;0.20;;;;;;;18.12;67.93;99797.50;5070113;28;20680;-71
2021/08/08 09:42:26;;;;;;;1.03;0.50;;;;;;;18.16;67.70;99794.75;5069866;28;20189;-71
2021/08/08 09:45:04;;;;;;;1.00;0.80;;;;;;;18.22;68.92;99810.63;5069974;28;20206;-71
2021/08/08 09:47:44;;;;;;;1.30;0.77;;;;;;;18.34;68.71;99813.13;5069949;28;20225;-71
2021/08/08 09:50:12;;;;;;;1.03;0.50;;;;;;;18.40;69.14;99816.38;5070460;28;20262;-71
2021/08/08 09:52:39;;;;;;;1.47;0.57;;;;;;;18.41;68.66;99804.13;5070773;28;20201;-71
2021/08/08 09:55:27;;;;;;;1.33;0.67;;;;;;;18.44;70.28;99831.81;5073106;28;20738;-71
2021/08/08 09:57:54;;;;;;;0.57;0.47;;;;;;;18.47;69.22;99818.41;5071688;28;20167;-71
2021/08/08 10:00:28;;;;;;;1.37;0.90;;;;;;;18.44;69.73;99833.78;5073547;28;20183;-71
2021/08/08 10:02:54;;;;;;;0.60;0.50;;;;;;;18.29;69.32;99832.03;5073386;28;20579;-71
2021/08/08 10:05:20;;;;;;;0.67;0.60;;;;;;;18.14;69.98;99839.38;5073311;28;20174;-71
2021/08/08 10:07:47;;;;;;;0.90;0.90;;;;;;;18.07;70.43;99847.56;5073092;28;20608;-71
2021/08/08 10:10:13;;;;;;;1.03;0.70;;;;;;;18.07;70.65;99839.28;5070449;28;20182;-71
2021/08/08 10:12:54;;;;;;;0.57;0.57;;;;;;;18.12;71.48;99838.97;5070681;28;20212;-71
2021/08/08 10:15:19;;;;;;;0.83;0.70;;;;;;;18.24;70.30;99860.03;5069601;28;20186;-71
2021/08/08 10:17:49;;;;;;;1.40;0.47;;;;;;;18.16;67.93;99845.31;5072753;28;20196;-71
2021/08/08 10:20:15;;;;;;;2.40;0.77;;;;;;;18.21;67.95;99839.44;5072964;28;20254;-71
2021/08/08 10:22:42;;;;;;;1.90;0.97;;;;;;;18.29;67.88;99846.66;5073267;28;20262;-71
2021/08/08 10:25:09;;;;;;;1.10;0.90;;;;;;;18.38;67.88;99843.63;5073010;28;20178;-71
2021/08/08 10:27:35;;;;;;;0.80;0.60;;;;;;;18.42;68.93;99842.47;5072842;28;20237;-71
2021/08/08 10:30:03;;;;;;;0.63;0.50;;;;;;;18.50;66.90;99842.53;5072569;28;20927;-72
2021/08/08 10:32:30;;;;;;;0.90;0.70;;;;;;;18.49;69.51;99844.50;5072662;28;20755;-71
2021/08/08 10:34:55;;;;;;;0.73;0.73;;;;;;;18.50;68.07;99839.75;5072916;28;20175;-71
2021/08/08 10:37:23;;;;;;;0.80;0.70;;;;;;;18.63;67.53;99830.00;5072736;28;20232;-71
2021/08/08 10:39:49;;;;;;;1.80;0.87;;;;;;;18.79;67.11;99830.59;5072465;28;20262;-71
2021/08/08 10:42:15;;;;;;;1.50;0.70;;;;;;;18.95;66.43;99833.91;5072352;28;20202;-71
2021/08/08 10:44:45;;;;;;;1.07;0.83;;;;;;;18.94;65.63;99837.84;5072625;28;20653;-71
2021/08/08 10:47:10;;;;;;;2.83;0.67;;;;;;;18.89;65.98;99829.91;5072342;28;20209;-71
2021/08/08 10:49:35;;;;;;;0.30;0.27;;;;;;;18.94;66.73;99842.56;5072325;28;20183;-71
2021/08/08 10:52:03;;;;;;;0.80;0.73;;;;;;;18.84;66.76;99832.22;5072551;28;20182;-71
2021/08/08 10:54:46;;;;;;;0.73;0.70;;;;;;;18.91;66.39;99835.84;5072330;28;20174;-71
2021/08/08 10:57:13;;;;;;;0.80;0.80;;;;;;;19.00;66.50;99833.56;5072275;28;20216;-71
2021/08/08 10:59:50;;;;;;;0.40;0.40;;;;;;;19.02;65.28;99825.66;5072281;28;20494;-71
2021/08/08 11:02:24;;;;;;;0.80;0.70;;;;;;;19.04;65.08;99830.81;5072130;28;20182;-71
2021/08/08 11:04:49;;;;;;;0.30;0.20;;;;;;;19.15;65.49;99831.69;5071312;28;20167;-71
2021/08/08 11:07:15;;;;;;;0.60;0.33;;;;;;;19.13;66.05;99831.28;5072015;28;20205;-71
2021/08/08 11:09:43;;;;;;;3.30;0.90;;;;;;;19.22;65.56;99842.00;5071802;28;20179;-71
2021/08/08 11:12:09;;;;;;;0.43;0.43;;;;;;;19.28;65.64;99851.56;5071776;28;20206;-71
2021/08/08 11:14:34;;;;;;;0.53;0.50;;;;;;;19.46;64.67;99841.41;5072046;28;20622;-71
2021/08/08 11:17:04;;;;;;;0.80;0.80;;;;;;;20.01;64.87;99859.97;5071980;28;20175;-72
2021/08/08 11:19:35;;;;;;;0.43;0.33;;;;;;;20.13;61.22;99849.31;5072131;28;20183;-71
2021/08/08 11:22:06;;;;;;;0.40;0.40;;;;;;;20.30;60.59;99861.66;5072054;28;20185;-71
2021/08/08 11:24:31;;;;;;;0.50;0.50;;;;;;;20.33;62.40;99868.41;5071605;28;20614;-71
2021/08/08 11:26:56;;;;;;;1.33;0.83;;;;;;;20.25;60.45;99877.88;5071777;28;20288;-71
2021/08/08 11:29:22;;;;;;;1.23;0.80;;;;;;;20.04;61.38;99862.75;5071766;28;20535;-71
2021/08/08 11:31:51;;;;;;;1.00;0.70;;;;;;;20.01;62.32;99865.50;5071647;28;20641;-70